Time;durP1;ratioP1;P1;durP2;ratioP2;P2;SDS_P1;SDS_P2;PMS_P1;PMS_P2;Temp;Humidity;BMP_temperature;BMP_pressure;BME280_temperature;BME280_humidity;BME280_pressure;Samples;Min_cycle;Max_cycle;Signal;HPM_P1;HPM_P2
2021/10/04 00:00:06;;;;;;;1.00;1.00;;;14.50;99.90;;;;;;6243891;22;20178;-90
2021/10/04 00:02:32;;;;;;;1.67;0.90;;;14.50;99.90;;;;;;6243499;22;20384;-91
2021/10/04 00:04:57;;;;;;;2.73;1.10;;;14.50;99.90;;;;;;6243012;22;20484;-91
2021/10/04 00:07:23;;;;;;;1.10;1.00;;;14.50;99.90;;;;;;6243898;22;20193;-91
2021/10/04 00:09:49;;;;;;;1.27;1.17;;;14.60;99.90;;;;;;6242764;22;20684;-91
2021/10/04 00:12:14;;;;;;;1.27;1.13;;;14.60;99.90;;;;;;6244207;22;20329;-91
2021/10/04 00:14:41;;;;;;;1.17;1.00;;;14.50;99.90;;;;;;6242129;22;20173;-91
2021/10/04 00:17:08;;;;;;;0.90;0.90;;;14.40;99.90;;;;;;6270713;22;20887;-91
2021/10/04 00:19:35;;;;;;;1.13;1.10;;;14.40;99.90;;;;;;6218434;22;20408;-91
2021/10/04 00:22:03;;;;;;;1.10;1.00;;;14.50;99.90;;;;;;6242882;22;20162;-91
2021/10/04 00:24:31;;;;;;;0.80;0.80;;;14.40;99.90;;;;;;6268726;22;20389;-91
2021/10/04 00:26:58;;;;;;;0.93;0.83;;;14.40;99.90;;;;;;6217737;22;20443;-91
2021/10/04 00:29:31;;;;;;;0.97;0.97;;;14.40;99.90;;;;;;6243783;22;20436;-91
2021/10/04 00:32:00;;;;;;;1.10;0.93;;;14.50;99.90;;;;;;6218373;22;20797;-90
2021/10/04 00:34:25;;;;;;;1.00;1.00;;;14.40;99.90;;;;;;6242809;22;20377;-91
2021/10/04 00:36:56;;;;;;;1.07;1.00;;;14.50;99.90;;;;;;6261881;22;20476;-92
2021/10/04 00:39:42;;;;;;;2.07;1.40;;;14.40;99.90;;;;;;6271354;22;20182;-91
2021/10/04 00:42:08;;;;;;;1.00;0.90;;;14.40;99.90;;;;;;6269950;22;20442;-91
2021/10/04 00:44:34;;;;;;;1.40;1.30;;;14.40;99.90;;;;;;6216577;22;20741;-91
2021/10/04 00:47:01;;;;;;;1.13;1.00;;;14.30;99.90;;;;;;6242789;22;20169;-91
2021/10/04 00:49:26;;;;;;;1.07;1.07;;;14.30;99.90;;;;;;6243144;22;20194;-91
2021/10/04 00:51:53;;;;;;;1.17;1.07;;;14.30;99.90;;;;;;6242936;22;21117;-91
2021/10/04 00:54:19;;;;;;;1.83;1.00;;;14.20;99.90;;;;;;6242145;22;20463;-91
2021/10/04 00:56:48;;;;;;;1.30;1.20;;;14.20;99.90;;;;;;6242629;22;20389;-91
2021/10/04 00:59:17;;;;;;;1.07;1.00;;;14.10;99.90;;;;;;6217494;22;20428;-91
2021/10/04 01:01:43;;;;;;;1.00;1.00;;;14.10;99.90;;;;;;6242815;22;20465;-92
2021/10/04 01:04:14;;;;;;;1.07;0.97;;;14.00;99.90;;;;;;6215890;22;20424;-91
2021/10/04 01:06:42;;;;;;;2.10;1.07;;;14.00;99.90;;;;;;6243089;22;20398;-91
2021/10/04 01:09:15;;;;;;;0.80;0.77;;;14.10;99.90;;;;;;6269448;22;20494;-91
2021/10/04 01:11:41;;;;;;;1.13;1.03;;;14.00;99.90;;;;;;6242446;22;20396;-91
2021/10/04 01:14:07;;;;;;;1.17;0.70;;;14.00;99.90;;;;;;6264999;22;20187;-90
2021/10/04 01:16:33;;;;;;;1.03;1.00;;;14.10;99.90;;;;;;6217039;22;21086;-91
2021/10/04 01:18:59;;;;;;;1.17;1.00;;;14.10;99.90;;;;;;6217105;22;20177;-91
2021/10/04 01:21:25;;;;;;;1.10;1.00;;;14.20;99.90;;;;;;6217909;22;20169;-91
2021/10/04 01:23:53;;;;;;;1.40;1.17;;;14.20;99.90;;;;;;6242172;22;20166;-91
2021/10/04 01:26:20;;;;;;;1.00;0.90;;;14.20;99.90;;;;;;6242139;22;20389;-91
2021/10/04 01:28:49;;;;;;;1.30;1.20;;;14.20;99.90;;;;;;6267037;22;20459;-91
2021/10/04 01:31:15;;;;;;;0.87;0.80;;;14.30;99.90;;;;;;6240927;22;20396;-91
2021/10/04 01:33:43;;;;;;;3.67;0.90;;;14.30;99.90;;;;;;6233115;23;20722;-91
2021/10/04 01:36:09;;;;;;;2.20;1.00;;;14.50;99.90;;;;;;6241717;22;20402;-91
2021/10/04 01:39:00;;;;;;;1.87;1.00;;;14.40;99.90;;;;;;6242988;22;20724;-92
2021/10/04 01:41:35;;;;;;;1.10;1.00;;;14.20;99.90;;;;;;6269535;22;20404;-92
2021/10/04 01:44:02;;;;;;;1.10;1.00;;;14.10;99.90;;;;;;6240960;22;20397;-91
2021/10/04 01:46:28;;;;;;;1.17;1.07;;;14.10;99.90;;;;;;6269573;22;20158;-91
2021/10/04 01:48:54;;;;;;;1.20;1.10;;;14.10;99.90;;;;;;6242458;22;20913;-91
2021/10/04 01:51:19;;;;;;;1.20;0.90;;;14.10;99.90;;;;;;6242215;22;20176;-91
2021/10/04 01:53:45;;;;;;;1.30;1.20;;;14.10;99.90;;;;;;6242010;22;20177;-91
2021/10/04 01:56:11;;;;;;;0.83;0.83;;;14.10;99.90;;;;;;6242553;22;20162;-92
2021/10/04 01:58:37;;;;;;;2.07;1.20;;;14.10;99.90;;;;;;6242453;22;20397;-92
2021/10/04 02:01:03;;;;;;;1.90;1.27;;;14.00;99.90;;;;;;6242144;22;20189;-92
2021/10/04 02:03:29;;;;;;;1.60;1.50;;;14.00;99.90;;;;;;6243282;22;20169;-91
2021/10/04 02:05:56;;;;;;;1.30;1.20;;;14.00;99.90;;;;;;6247697;22;20393;-91
2021/10/04 02:11:25;;;;;;;3.10;1.70;;;14.00;99.90;;;;;;6271034;22;20431;-91
2021/10/04 02:13:55;;;;;;;1.90;1.70;;;13.90;99.90;;;;;;6217243;22;20389;-91
2021/10/04 02:16:20;;;;;;;1.77;1.60;;;13.80;99.90;;;;;;6242357;22;20435;-91
2021/10/04 02:18:46;;;;;;;1.60;1.50;;;13.80;99.90;;;;;;6242495;22;20413;-91
2021/10/04 02:21:12;;;;;;;2.10;1.63;;;13.80;99.90;;;;;;6241426;22;20162;-91
2021/10/04 02:23:38;;;;;;;1.80;1.50;;;13.80;99.90;;;;;;6242752;22;20166;-92
2021/10/04 02:26:04;;;;;;;1.47;1.37;;;13.80;99.90;;;;;;6242063;22;20889;-91
2021/10/04 02:28:32;;;;;;;1.90;1.70;;;13.70;99.90;;;;;;6242068;22;20265;-91
2021/10/04 02:30:58;;;;;;;1.70;1.60;;;13.60;99.90;;;;;;6241130;22;20508;-91
2021/10/04 02:33:26;;;;;;;2.93;1.40;;;13.70;99.90;;;;;;6242394;22;20385;-92
2021/10/04 02:35:52;;;;;;;4.50;1.87;;;13.70;99.90;;;;;;6243012;22;20162;-91
2021/10/04 02:38:17;;;;;;;2.30;1.50;;;13.70;99.90;;;;;;6245081;22;20393;-91
2021/10/04 02:40:43;;;;;;;2.43;1.70;;;13.70;99.90;;;;;;6244039;22;20150;-91
2021/10/04 02:43:10;;;;;;;1.60;1.30;;;13.70;99.90;;;;;;6271227;22;20196;-91
2021/10/04 02:45:36;;;;;;;1.80;1.50;;;13.70;99.90;;;;;;6244342;22;20154;-91
2021/10/04 02:48:03;;;;;;;1.23;1.20;;;13.70;99.90;;;;;;6244507;22;20768;-92
2021/10/04 02:50:30;;;;;;;1.07;0.97;;;13.60;99.90;;;;;;6243856;22;20170;-91
2021/10/04 02:52:55;;;;;;;1.83;1.50;;;13.60;99.90;;;;;;6243833;22;20488;-91
2021/10/04 02:55:22;;;;;;;1.20;0.93;;;13.50;99.90;;;;;;6244850;22;20443;-91
2021/10/04 02:57:47;;;;;;;1.67;1.10;;;13.50;99.90;;;;;;6243704;22;20165;-91
2021/10/04 03:00:15;;;;;;;0.63;0.50;;;13.40;99.90;;;;;;6243651;22;20737;-91
2021/10/04 03:02:42;;;;;;;0.80;0.70;;;13.30;99.90;;;;;;6244443;22;20268;-91
2021/10/04 03:05:08;;;;;;;0.90;0.90;;;13.30;99.90;;;;;;6243401;22;20917;-91
2021/10/04 03:07:34;;;;;;;0.73;0.73;;;13.30;99.90;;;;;;6243219;22;20403;-91
2021/10/04 03:09:59;;;;;;;1.50;1.00;;;13.20;99.90;;;;;;6243172;22;20444;-91
2021/10/04 03:12:25;;;;;;;1.43;0.90;;;13.20;99.90;;;;;;6244445;22;20790;-91
2021/10/04 03:14:51;;;;;;;0.50;0.50;;;13.10;99.90;;;;;;6244289;22;20228;-91
2021/10/04 03:17:17;;;;;;;0.90;0.90;;;13.10;99.90;;;;;;6244559;22;20668;-91
2021/10/04 03:19:43;;;;;;;0.70;0.70;;;13.10;99.90;;;;;;6245076;22;20166;-91
2021/10/04 03:22:09;;;;;;;1.27;0.73;;;13.00;99.90;;;;;;6244782;22;20190;-91
2021/10/04 03:24:35;;;;;;;0.53;0.53;;;13.00;99.90;;;;;;6244609;22;20408;-91
2021/10/04 03:27:00;;;;;;;0.43;0.43;;;12.90;99.90;;;;;;6244675;22;20393;-91
2021/10/04 03:29:26;;;;;;;0.63;0.63;;;12.80;99.90;;;;;;6244262;22;20248;-92
2021/10/04 03:31:52;;;;;;;0.87;0.87;;;12.60;99.90;;;;;;6245079;22;20158;-92
2021/10/04 03:34:19;;;;;;;0.63;0.63;;;12.50;99.90;;;;;;6244851;22;20173;-91
2021/10/04 03:36:45;;;;;;;0.80;0.80;;;12.50;99.90;;;;;;6255249;22;20438;-91
2021/10/04 03:39:11;;;;;;;1.57;0.77;;;12.40;99.90;;;;;;6252235;22;20397;-91
2021/10/04 03:41:38;;;;;;;0.97;0.77;;;12.40;99.90;;;;;;6244821;22;20425;-92
2021/10/04 03:44:04;;;;;;;0.57;0.57;;;12.40;99.90;;;;;;6271457;22;20393;-92
2021/10/04 03:46:31;;;;;;;0.90;0.90;;;12.40;99.90;;;;;;6244449;22;20397;-92
2021/10/04 03:48:57;;;;;;;1.03;0.93;;;12.50;99.90;;;;;;6244692;22;20437;-92
2021/10/04 03:51:23;;;;;;;2.80;1.00;;;12.40;99.90;;;;;;6244613;22;20392;-90
2021/10/04 03:53:49;;;;;;;0.80;0.80;;;12.50;99.90;;;;;;6244822;22;20170;-91
2021/10/04 03:56:15;;;;;;;1.87;0.80;;;12.50;99.90;;;;;;6243905;22;20396;-92
2021/10/04 03:58:41;;;;;;;1.23;1.13;;;12.50;99.90;;;;;;6244232;22;20485;-91
2021/10/04 04:01:07;;;;;;;2.73;0.87;;;12.50;99.90;;;;;;6244440;22;20444;-92
2021/10/04 04:03:33;;;;;;;1.23;0.80;;;12.40;99.90;;;;;;6244970;22;20227;-92
2021/10/04 04:05:58;;;;;;;1.30;1.00;;;12.40;99.90;;;;;;6244486;22;20747;-92
2021/10/04 04:08:24;;;;;;;0.77;0.77;;;12.40;99.90;;;;;;6244779;22;20432;-92
2021/10/04 04:10:50;;;;;;;0.90;0.73;;;12.40;99.90;;;;;;6244711;22;20215;-91
2021/10/04 04:13:16;;;;;;;0.87;0.87;;;12.40;99.90;;;;;;6244598;22;20237;-91
2021/10/04 04:15:41;;;;;;;2.30;0.93;;;12.40;99.90;;;;;;6243998;22;20169;-91
2021/10/04 04:18:07;;;;;;;0.90;0.90;;;12.50;99.90;;;;;;6244627;22;20244;-91
2021/10/04 04:20:33;;;;;;;1.20;1.03;;;12.40;99.90;;;;;;6244470;22;20166;-92
2021/10/04 04:22:58;;;;;;;1.20;0.70;;;12.30;99.90;;;;;;6244604;22;20393;-91
2021/10/04 04:25:24;;;;;;;1.00;0.77;;;12.30;99.90;;;;;;6243997;22;20169;-91
2021/10/04 04:27:50;;;;;;;1.00;0.90;;;12.30;99.90;;;;;;6244652;22;20636;-92
2021/10/04 04:30:16;;;;;;;2.20;0.90;;;12.30;99.90;;;;;;6244316;22;20190;-92
2021/10/04 04:32:44;;;;;;;1.13;0.80;;;12.20;99.90;;;;;;6245104;22;20169;-92
2021/10/04 04:35:10;;;;;;;0.90;0.90;;;12.10;99.90;;;;;;6244292;22;20864;-92
2021/10/04 04:37:39;;;;;;;0.80;0.80;;;12.10;99.90;;;;;;6245137;22;20863;-91
2021/10/04 04:40:07;;;;;;;1.60;0.93;;;12.10;99.90;;;;;;6244465;22;20398;-91
2021/10/04 04:42:33;;;;;;;1.53;0.90;;;12.10;99.90;;;;;;6244781;22;20392;-92
2021/10/04 04:44:58;;;;;;;1.00;0.90;;;12.20;99.90;;;;;;6243784;22;20397;-92
2021/10/04 04:47:24;;;;;;;0.97;0.90;;;12.20;99.90;;;;;;6245286;22;20169;-92
2021/10/04 04:49:52;;;;;;;1.10;1.10;;;12.10;99.90;;;;;;6244325;22;20193;-91
2021/10/04 04:52:18;;;;;;;2.40;0.87;;;12.10;99.90;;;;;;6244881;22;20169;-92
2021/10/04 04:54:43;;;;;;;1.20;1.10;;;12.20;99.90;;;;;;6244196;22;20427;-92
2021/10/04 04:57:09;;;;;;;1.23;0.90;;;12.30;99.90;;;;;;6245860;22;20207;-93
2021/10/04 04:59:35;;;;;;;1.10;1.00;;;12.30;99.90;;;;;;6245100;22;20181;-92
2021/10/04 05:02:01;;;;;;;0.90;0.90;;;12.40;99.90;;;;;;6242038;22;20550;-93
2021/10/04 05:04:28;;;;;;;0.83;0.83;;;12.40;99.90;;;;;;6242446;22;20159;-92
2021/10/04 05:06:53;;;;;;;0.93;0.90;;;12.40;99.90;;;;;;6255920;22;20393;-92
2021/10/04 05:09:19;;;;;;;1.10;1.00;;;12.50;99.90;;;;;;6249885;22;20574;-93
2021/10/04 05:11:50;;;;;;;1.70;0.97;;;12.50;99.90;;;;;;6271448;22;20496;-93
2021/10/04 05:14:16;;;;;;;0.90;0.73;;;12.50;99.90;;;;;;6243491;22;20397;-92
2021/10/04 05:16:42;;;;;;;0.70;0.70;;;12.40;99.90;;;;;;6244062;22;20158;-92
2021/10/04 05:19:07;;;;;;;0.77;0.77;;;12.50;99.90;;;;;;6243518;22;20192;-92
2021/10/04 05:21:33;;;;;;;1.47;1.37;;;12.40;99.90;;;;;;6243470;22;20190;-93
2021/10/04 05:23:59;;;;;;;1.53;0.90;;;12.40;99.90;;;;;;6243193;22;20192;-93
2021/10/04 05:26:26;;;;;;;1.53;1.17;;;12.40;99.90;;;;;;6244404;22;20400;-92
2021/10/04 05:28:52;;;;;;;1.30;0.90;;;12.40;99.90;;;;;;6243578;22;20200;-92
2021/10/04 05:31:18;;;;;;;1.10;1.00;;;12.30;99.90;;;;;;6243568;22;20755;-93
2021/10/04 05:33:43;;;;;;;1.63;1.50;;;12.30;99.90;;;;;;6244524;22;20154;-93
2021/10/04 05:36:09;;;;;;;1.30;0.90;;;12.30;99.90;;;;;;6243525;22;20189;-92
2021/10/04 05:38:35;;;;;;;0.90;0.90;;;12.30;99.90;;;;;;6244122;22;20150;-93
2021/10/04 05:41:01;;;;;;;1.17;0.97;;;12.30;99.90;;;;;;6271996;22;20184;-92
2021/10/04 05:43:26;;;;;;;2.23;1.43;;;12.30;99.90;;;;;;6243286;22;20545;-92
2021/10/04 05:45:52;;;;;;;1.77;1.67;;;12.30;99.90;;;;;;6239532;22;20166;-93
2021/10/04 05:48:21;;;;;;;1.70;1.60;;;12.20;99.90;;;;;;6245883;22;20288;-90
2021/10/04 05:50:49;;;;;;;2.07;1.87;;;12.10;99.90;;;;;;6246012;22;20496;-92
2021/10/04 05:53:18;;;;;;;1.87;1.60;;;12.10;99.90;;;;;;6271281;22;20388;-93
2021/10/04 05:55:46;;;;;;;1.80;1.23;;;12.00;99.90;;;;;;6244138;22;20411;-92
2021/10/04 05:58:11;;;;;;;1.70;1.60;;;12.00;99.90;;;;;;6244145;22;20445;-92
2021/10/04 06:00:38;;;;;;;2.50;1.93;;;12.10;99.90;;;;;;6244724;22;20409;-92
2021/10/04 06:03:03;;;;;;;2.30;2.10;;;12.10;99.90;;;;;;6244539;22;20433;-93
2021/10/04 06:05:29;;;;;;;5.57;2.80;;;12.10;99.90;;;;;;6244415;22;20377;-92
2021/10/04 06:08:06;;;;;;;5.17;2.97;;;12.10;99.90;;;;;;6244911;22;20174;-93
2021/10/04 06:10:31;;;;;;;1.80;1.70;;;12.10;99.90;;;;;;6246223;22;20375;-93
2021/10/04 06:12:58;;;;;;;1.97;1.87;;;12.10;99.90;;;;;;6246672;22;20389;-94
2021/10/04 06:15:24;;;;;;;2.70;2.50;;;12.10;99.90;;;;;;6246561;22;20189;-92
2021/10/04 06:17:49;;;;;;;3.10;2.47;;;12.20;99.90;;;;;;6246850;22;20396;-92
2021/10/04 06:20:16;;;;;;;2.30;2.10;;;12.20;99.90;;;;;;6247293;22;20397;-92
2021/10/04 06:22:42;;;;;;;3.17;2.63;;;12.30;99.90;;;;;;6246139;22;20518;-93
2021/10/04 06:25:11;;;;;;;3.83;2.47;;;12.40;99.90;;;;;;6246078;22;20406;-93
2021/10/04 06:27:39;;;;;;;4.00;2.73;;;12.50;99.90;;;;;;6246159;22;20158;-93
2021/10/04 06:30:12;;;;;;;4.30;3.77;;;12.50;99.90;;;;;;6273168;22;20466;-93
2021/10/04 06:32:38;;;;;;;4.10;3.70;;;12.50;99.90;;;;;;6246495;22;20393;-93
2021/10/04 06:35:05;;;;;;;4.47;4.07;;;12.60;99.90;;;;;;6246726;22;20514;-93
2021/10/04 06:37:30;;;;;;;4.53;4.13;;;12.50;99.90;;;;;;6264659;22;20158;-93
2021/10/04 06:39:56;;;;;;;4.70;4.27;;;12.60;99.90;;;;;;6250150;22;20485;-92
2021/10/04 06:42:24;;;;;;;5.70;4.00;;;12.60;99.90;;;;;;6246154;22;20158;-92
2021/10/04 06:44:50;;;;;;;5.40;4.90;;;12.60;99.90;;;;;;6245257;22;20168;-92
2021/10/04 06:47:16;;;;;;;3.87;3.47;;;12.70;99.90;;;;;;6245665;22;20389;-92
2021/10/04 06:49:42;;;;;;;4.00;3.30;;;12.70;99.90;;;;;;6244943;22;20825;-92
2021/10/04 06:52:07;;;;;;;6.00;5.50;;;12.70;99.90;;;;;;6246017;22;20646;-92
2021/10/04 06:54:33;;;;;;;4.73;4.30;;;12.70;99.90;;;;;;6243572;22;20526;-91
2021/10/04 06:56:59;;;;;;;4.97;4.57;;;12.70;99.90;;;;;;6246698;22;20469;-91
2021/10/04 06:59:25;;;;;;;3.97;3.53;;;12.70;99.90;;;;;;6219148;22;20182;-90
2021/10/04 07:01:50;;;;;;;4.70;4.30;;;12.80;99.90;;;;;;6244143;22;20389;-90
2021/10/04 07:04:16;;;;;;;4.10;3.70;;;12.80;99.90;;;;;;6243848;22;20166;-90
2021/10/04 07:06:52;;;;;;;4.90;4.50;;;12.90;99.90;;;;;;6244865;22;20162;-94
2021/10/04 07:09:18;;;;;;;4.67;4.27;;;12.90;99.90;;;;;;6248613;22;20702;-95
2021/10/04 07:11:43;;;;;;;5.30;4.90;;;12.90;99.90;;;;;;6247557;22;20393;-95
2021/10/04 07:14:09;;;;;;;6.10;5.50;;;12.80;99.90;;;;;;6246108;22;20169;-95
2021/10/04 07:16:37;;;;;;;4.20;3.53;;;12.80;99.90;;;;;;6247434;22;20291;-95
2021/10/04 07:19:03;;;;;;;3.80;3.50;;;12.90;99.90;;;;;;6246327;22;20399;-94
2021/10/04 07:21:30;;;;;;;4.30;3.90;;;12.90;99.90;;;;;;6247516;22;20484;-93
2021/10/04 07:23:59;;;;;;;3.90;3.57;;;12.90;99.90;;;;;;6246555;22;20389;-94
2021/10/04 07:26:30;;;;;;;3.60;3.30;;;12.90;99.90;;;;;;6247344;22;20401;-94
2021/10/04 07:28:56;;;;;;;3.77;3.47;;;13.00;99.90;;;;;;6245681;22;20429;-94
2021/10/04 07:31:22;;;;;;;2.90;2.70;;;13.00;99.90;;;;;;6245616;22;20997;-94
2021/10/04 07:33:48;;;;;;;2.70;2.50;;;13.10;99.90;;;;;;6245934;22;20393;-94
2021/10/04 07:36:14;;;;;;;5.40;4.90;;;13.00;99.90;;;;;;6246200;22;20867;-95
2021/10/04 07:38:40;;;;;;;5.07;4.63;;;13.10;99.90;;;;;;6245001;22;20215;-94
2021/10/04 07:41:09;;;;;;;3.90;3.60;;;13.20;99.90;;;;;;6246983;22;20696;-92
2021/10/04 07:43:35;;;;;;;3.10;2.90;;;13.20;99.90;;;;;;6245315;22;20154;-93
2021/10/04 07:46:19;;;;;;;3.27;3.07;;;13.30;99.90;;;;;;6271119;22;21176;-92
2021/10/04 07:48:44;;;;;;;1.80;1.70;;;13.30;99.90;;;;;;6244842;22;20189;-92
2021/10/04 07:51:14;;;;;;;2.07;1.83;;;13.20;99.90;;;;;;6245408;22;20397;-91
2021/10/04 07:53:41;;;;;;;3.17;1.70;;;13.10;99.90;;;;;;6244915;22;20159;-92
2021/10/04 07:56:06;;;;;;;2.90;2.27;;;12.90;99.90;;;;;;6245329;22;20518;-90
2021/10/04 07:58:32;;;;;;;3.07;2.77;;;12.90;99.90;;;;;;6246015;22;20810;-91
2021/10/04 08:00:58;;;;;;;4.73;4.20;;;13.00;99.90;;;;;;6218556;23;20493;-91
2021/10/04 08:03:23;;;;;;;5.33;4.93;;;13.00;99.90;;;;;;6215270;23;20171;-90
2021/10/04 08:05:52;;;;;;;4.50;3.77;;;13.10;99.90;;;;;;6215774;23;20182;-91
2021/10/04 08:08:17;;;;;;;5.23;4.70;;;13.10;99.90;;;;;;6230803;23;20167;-89
2021/10/04 08:10:43;;;;;;;3.37;3.07;;;13.20;99.90;;;;;;6214207;23;20436;-89
2021/10/04 08:16:13;;;;;;;2.87;2.63;;;13.10;99.90;;;;;;6240636;23;20237;-92
2021/10/04 08:18:45;;;;;;;5.80;3.80;;;13.20;99.90;;;;;;6214170;23;20732;-92
2021/10/04 08:21:15;;;;;;;4.43;2.93;;;13.30;99.90;;;;;;6215915;23;20405;-92
2021/10/04 08:23:41;;;;;;;3.03;2.50;;;13.30;99.90;;;;;;6217299;23;20481;-94
2021/10/04 08:26:06;;;;;;;3.03;2.73;;;13.30;99.90;;;;;;6215579;23;20437;-93
2021/10/04 08:28:32;;;;;;;4.47;2.27;;;13.30;99.90;;;;;;6216500;23;20228;-93
2021/10/04 08:30:59;;;;;;;4.00;2.80;;;13.00;99.90;;;;;;6216371;23;20174;-94
2021/10/04 08:33:25;;;;;;;3.33;2.07;;;13.00;99.90;;;;;;6215504;23;20185;-93
2021/10/04 08:35:52;;;;;;;3.10;2.80;;;13.00;99.90;;;;;;6192206;23;20398;-94
2021/10/04 08:38:18;;;;;;;3.67;2.97;;;12.90;99.90;;;;;;6218024;23;20159;-94
2021/10/04 08:40:45;;;;;;;3.53;3.20;;;13.00;99.90;;;;;;6215273;23;20448;-93
2021/10/04 08:43:10;;;;;;;2.87;2.67;;;13.00;99.90;;;;;;6214383;23;20159;-93
2021/10/04 08:45:36;;;;;;;2.40;2.20;;;13.10;99.90;;;;;;6214393;23;20401;-94
2021/10/04 08:48:02;;;;;;;2.77;2.03;;;13.20;99.90;;;;;;6215368;23;20242;-94
2021/10/04 08:50:31;;;;;;;1.83;1.73;;;13.10;99.90;;;;;;6217047;23;20442;-94
2021/10/04 08:52:57;;;;;;;1.77;1.67;;;12.90;99.90;;;;;;6215111;23;20398;-94
2021/10/04 08:55:24;;;;;;;2.13;1.60;;;12.90;99.90;;;;;;6217146;23;20567;-93
2021/10/04 08:57:50;;;;;;;4.47;3.23;;;12.70;99.90;;;;;;6219554;23;20578;-94
2021/10/04 09:00:18;;;;;;;3.20;3.00;;;12.70;99.90;;;;;;6209819;22;20424;-94
2021/10/04 09:05:25;;;;;;;2.37;2.17;;;12.90;99.90;;;;;;6273378;22;20381;-94
2021/10/04 09:07:59;;;;;;;2.23;2.07;;;13.00;99.90;;;;;;6266499;22;20396;-95
2021/10/04 09:10:35;;;;;;;2.20;2.00;;;12.90;99.90;;;;;;6245454;22;20437;-94
2021/10/04 09:13:11;;;;;;;2.13;1.93;;;12.80;99.90;;;;;;6273973;22;20381;-94
2021/10/04 09:15:42;;;;;;;3.97;2.67;;;12.80;99.90;;;;;;6246468;22;20392;-94
2021/10/04 09:18:27;;;;;;;3.40;3.00;;;12.80;99.90;;;;;;6245556;22;20480;-93
2021/10/04 09:21:02;;;;;;;2.70;2.50;;;12.80;99.90;;;;;;6245563;22;20397;-93
2021/10/04 09:23:34;;;;;;;3.17;2.87;;;12.80;99.90;;;;;;6245325;22;20457;-94
2021/10/04 09:26:02;;;;;;;4.33;3.93;;;13.00;99.90;;;;;;6246306;22;20403;-94
2021/10/04 09:28:37;;;;;;;17.53;11.93;;;13.20;99.90;;;;;;6245627;22;20703;-94
2021/10/04 09:31:37;;;;;;;17.07;10.87;;;13.30;99.90;;;;;;6244090;22;20428;-95
2021/10/04 09:34:27;;;;;;;3.20;2.90;;;13.30;99.90;;;;;;6211969;22;20396;-94
2021/10/04 09:36:59;;;;;;;4.53;4.17;;;13.20;99.90;;;;;;6243585;22;20745;-93
2021/10/04 09:39:36;;;;;;;2.93;2.73;;;13.30;99.90;;;;;;6249150;22;20395;-93
2021/10/04 09:42:04;;;;;;;4.00;2.40;;;13.40;99.90;;;;;;6245418;22;20401;-93
2021/10/04 09:44:51;;;;;;;2.20;2.10;;;13.50;99.90;;;;;;6245279;22;20480;-94
2021/10/04 09:50:26;;;;;;;2.30;2.10;;;13.40;99.90;;;;;;6276583;22;20464;-94
2021/10/04 09:53:00;;;;;;;3.60;2.30;;;13.40;99.90;;;;;;6246130;22;20454;-94
2021/10/04 09:55:38;;;;;;;4.17;3.00;;;13.50;99.90;;;;;;6247009;22;20488;-94
2021/10/04 09:58:05;;;;;;;3.40;2.27;;;13.40;99.90;;;;;;6274239;22;20423;-94
2021/10/04 10:00:51;;;;;;;2.60;2.40;;;13.60;99.90;;;;;;6226072;23;20417;-95
2021/10/04 10:03:18;;;;;;;5.90;4.73;;;13.70;99.90;;;;;;6216877;23;20397;-93
2021/10/04 10:05:54;;;;;;;13.80;10.90;;;13.70;99.90;;;;;;6238911;23;20723;-94
2021/10/04 10:08:40;;;;;;;10.03;8.80;;;13.70;99.90;;;;;;6215925;23;20404;-94
2021/10/04 10:14:02;;;;;;;2.30;2.10;;;13.80;99.90;;;;;;6222731;23;20487;-94
2021/10/04 10:16:53;;;;;;;2.20;2.00;;;14.00;99.90;;;;;;6244402;23;20401;-94
2021/10/04 10:19:22;;;;;;;0.67;0.67;;;14.20;99.90;;;;;;6216052;23;20404;-94
2021/10/04 10:21:48;;;;;;;1.30;0.90;;;14.30;99.90;;;;;;6216739;23;20732;-94
2021/10/04 10:24:29;;;;;;;1.00;1.00;;;14.40;99.90;;;;;;6191578;23;20404;-94
2021/10/04 10:29:53;;;;;;;0.57;0.57;;;14.10;99.90;;;;;;6236976;23;20440;-95
2021/10/04 10:32:20;;;;;;;0.97;0.60;;;14.20;99.90;;;;;;6217710;23;20394;-93
2021/10/04 10:34:58;;;;;;;1.07;0.60;;;14.60;99.90;;;;;;6242740;23;20464;-94
2021/10/04 10:37:49;;;;;;;1.10;1.10;;;14.70;99.90;;;;;;6213503;23;20402;-94
2021/10/04 10:40:19;;;;;;;1.00;1.00;;;14.80;99.90;;;;;;6216040;23;20386;-93
2021/10/04 10:43:01;;;;;;;0.80;0.70;;;15.10;99.90;;;;;;6216095;23;20401;-94
2021/10/04 10:45:46;;;;;;;1.20;1.10;;;15.10;99.90;;;;;;6215353;23;20405;-94
2021/10/04 10:48:13;;;;;;;0.93;0.93;;;15.20;99.90;;;;;;6216837;23;20688;-94
2021/10/04 10:50:50;;;;;;;1.60;1.40;;;15.20;99.90;;;;;;6212900;23;20395;-93
2021/10/04 10:53:38;;;;;;;1.93;1.30;;;15.20;99.90;;;;;;6216466;23;20437;-94
2021/10/04 10:56:07;;;;;;;0.70;0.50;;;15.30;99.90;;;;;;6214978;23;20398;-95
2021/10/04 10:58:35;;;;;;;0.87;0.87;;;15.40;99.90;;;;;;6215248;23;20408;-94
2021/10/04 11:01:02;;;;;;;0.87;0.87;;;15.50;99.90;;;;;;6243301;22;20221;-94
2021/10/04 11:03:28;;;;;;;1.63;0.60;;;15.60;99.90;;;;;;6246086;22;20739;-93
2021/10/04 11:06:08;;;;;;;1.40;0.87;;;15.80;99.90;;;;;;6246950;22;20416;-94
2021/10/04 11:08:42;;;;;;;0.60;0.60;;;15.70;99.90;;;;;;6251450;22;20432;-94
2021/10/04 11:11:14;;;;;;;0.90;0.90;;;15.70;99.90;;;;;;6249179;22;20495;-94
2021/10/04 11:14:00;;;;;;;2.00;0.80;;;15.50;99.90;;;;;;6246267;22;20940;-94
2021/10/04 11:16:25;;;;;;;0.60;0.60;;;15.40;99.90;;;;;;6246623;22;20404;-94
2021/10/04 11:18:53;;;;;;;1.67;0.70;;;15.30;99.90;;;;;;6246996;22;20388;-93
2021/10/04 11:21:22;;;;;;;0.83;0.63;;;15.20;99.90;;;;;;6247485;22;20162;-94
2021/10/04 11:23:51;;;;;;;1.00;0.90;;;15.20;99.90;;;;;;6252260;22;20397;-94
2021/10/04 11:26:20;;;;;;;1.63;0.80;;;15.20;99.90;;;;;;6249983;22;20389;-94
2021/10/04 11:28:52;;;;;;;3.43;1.20;;;15.10;99.90;;;;;;6245972;22;20747;-94
2021/10/04 11:31:33;;;;;;;1.17;1.03;;;15.00;99.90;;;;;;6253754;22;20429;-93
2021/10/04 11:34:07;;;;;;;0.90;0.90;;;14.80;99.90;;;;;;6246760;22;20397;-94
2021/10/04 11:36:41;;;;;;;1.67;1.57;;;14.50;99.90;;;;;;6246126;22;20870;-94
2021/10/04 11:39:29;;;;;;;2.60;2.40;;;14.30;99.90;;;;;;6245460;22;20395;-93
2021/10/04 11:42:06;;;;;;;3.03;2.83;;;14.00;99.90;;;;;;6244574;22;20405;-94
2021/10/04 11:44:42;;;;;;;3.10;2.90;;;13.80;99.90;;;;;;6271291;22;20388;-94
2021/10/04 11:47:09;;;;;;;3.40;3.20;;;13.80;99.90;;;;;;6245636;22;20450;-94
2021/10/04 11:49:44;;;;;;;3.60;3.30;;;13.70;99.90;;;;;;6245285;22;20475;-95
2021/10/04 11:52:15;;;;;;;3.50;3.20;;;13.70;99.90;;;;;;6245463;22;20397;-94
2021/10/04 11:54:44;;;;;;;4.90;3.17;;;13.80;99.90;;;;;;6245693;22;20397;-94
2021/10/04 11:57:14;;;;;;;3.20;2.90;;;13.90;99.90;;;;;;6243958;22;20393;-94
2021/10/04 11:59:51;;;;;;;3.10;2.80;;;13.90;99.90;;;;;;6243746;22;20401;-94
2021/10/04 12:05:21;;;;;;;4.50;2.73;;;14.00;99.90;;;;;;6276785;22;20403;-93
2021/10/04 12:08:11;;;;;;;3.03;2.83;;;14.20;99.90;;;;;;6248167;22;20405;-95
2021/10/04 12:10:40;;;;;;;2.40;2.30;;;14.10;99.90;;;;;;6249596;22;20463;-94
2021/10/04 12:13:12;;;;;;;1.90;1.80;;;14.00;99.90;;;;;;6247738;22;20389;-94
2021/10/04 12:15:40;;;;;;;1.97;1.87;;;14.20;99.90;;;;;;6246635;22;20454;-93
2021/10/04 12:18:06;;;;;;;2.10;1.80;;;14.30;99.90;;;;;;6246030;22;20487;-94
2021/10/04 12:20:32;;;;;;;2.23;2.07;;;14.40;99.90;;;;;;6247243;22;20510;-94
2021/10/04 12:22:57;;;;;;;2.60;2.27;;;14.50;99.90;;;;;;6220549;22;20405;-94
2021/10/04 12:25:28;;;;;;;2.10;2.00;;;14.70;99.90;;;;;;6244968;22;20162;-93
2021/10/04 12:28:03;;;;;;;2.30;2.10;;;14.70;99.90;;;;;;6246281;22;20170;-94
2021/10/04 12:30:45;;;;;;;2.20;2.10;;;14.80;99.90;;;;;;6245465;22;20439;-93
2021/10/04 12:33:11;;;;;;;2.10;1.90;;;14.90;99.90;;;;;;6245647;22;20439;-95
2021/10/04 12:35:38;;;;;;;2.80;2.60;;;14.90;99.90;;;;;;6245774;22;20397;-94
2021/10/04 12:38:13;;;;;;;3.37;3.10;;;14.90;99.90;;;;;;6235404;22;20392;-93
2021/10/04 12:40:45;;;;;;;2.27;2.07;;;15.00;99.90;;;;;;6275046;22;20407;-95
2021/10/04 12:43:25;;;;;;;1.90;1.80;;;14.90;99.90;;;;;;6244578;22;20389;-94
2021/10/04 12:46:10;;;;;;;2.20;2.03;;;14.80;99.90;;;;;;6243951;22;20412;-94
2021/10/04 12:48:49;;;;;;;2.37;2.17;;;14.90;99.90;;;;;;6246984;22;20861;-95
2021/10/04 12:51:25;;;;;;;2.20;2.10;;;14.80;99.90;;;;;;6245384;22;20396;-94
2021/10/04 12:53:56;;;;;;;2.73;2.27;;;14.60;99.90;;;;;;6244413;22;20400;-94
2021/10/04 12:56:32;;;;;;;2.27;2.17;;;14.40;99.90;;;;;;6245163;22;20392;-94
2021/10/04 12:59:04;;;;;;;1.70;1.60;;;14.30;99.90;;;;;;6270967;22;20403;-94
2021/10/04 13:01:30;;;;;;;1.80;1.63;;;14.40;99.90;;;;;;6243800;22;20413;-94
2021/10/04 13:04:07;;;;;;;1.53;1.43;;;14.40;99.90;;;;;;6244662;22;20408;-94
2021/10/04 13:06:40;;;;;;;1.90;1.80;;;14.50;99.90;;;;;;6271869;22;20479;-94
2021/10/04 13:09:06;;;;;;;2.20;1.93;;;14.70;99.90;;;;;;6244828;22;20428;-94
2021/10/04 13:11:33;;;;;;;1.90;1.80;;;14.70;99.90;;;;;;6245160;22;20405;-95
2021/10/04 13:14:02;;;;;;;1.80;1.70;;;14.70;99.90;;;;;;6245012;22;20479;-94